Time;durP1;ratioP1;P1;durP2;ratioP2;P2;SDS_P1;SDS_P2;PMS_P1;PMS_P2;Temp;Humidity;BMP_temperature;BMP_pressure;BME280_temperature;BME280_humidity;BME280_pressure;Samples;Min_cycle;Max_cycle;Signal;HPM_P1;HPM_P2
2021/11/22 00:01:24;;;;;;;125.17;61.77;;;;;;;;;;4464670;32;20247;-59
2021/11/22 00:03:49;;;;;;;121.40;60.10;;;;;;;;;;4466236;32;20633;-59
2021/11/22 00:06:15;;;;;;;128.73;59.30;;;;;;;;;;4466000;32;20333;-58
2021/11/22 00:08:41;;;;;;;129.87;60.43;;;;;;;;;;4466235;32;20647;-59
2021/11/22 00:11:07;;;;;;;124.07;61.20;;;;;;;;;;4466235;32;20700;-59
2021/11/22 00:13:33;;;;;;;131.43;58.83;;;;;;;;;;4465177;32;20280;-59
2021/11/22 00:15:58;;;;;;;129.40;62.73;;;;;;;;;;4466139;32;20262;-59
2021/11/22 00:18:24;;;;;;;143.30;68.77;;;;;;;;;;4466360;32;20275;-59
2021/11/22 00:20:50;;;;;;;135.17;65.20;;;;;;;;;;4466595;32;20271;-60
2021/11/22 00:23:16;;;;;;;153.53;72.67;;;;;;;;;;4466130;32;20303;-60
2021/11/22 00:25:42;;;;;;;140.73;70.27;;;;;;;;;;4453597;32;20328;-59
2021/11/22 00:28:07;;;;;;;161.07;71.80;;;;;;;;;;4455263;32;20246;-59
2021/11/22 00:30:33;;;;;;;164.83;73.83;;;;;;;;;;4466008;32;20337;-59
2021/11/22 00:33:00;;;;;;;144.37;69.07;;;;;;;;;;4465919;32;20283;-59
2021/11/22 00:35:32;;;;;;;160.50;75.77;;;;;;;;;;4465732;32;20279;-59
2021/11/22 00:37:59;;;;;;;152.43;75.40;;;;;;;;;;4460542;32;20254;-59
2021/11/22 00:40:25;;;;;;;170.83;77.67;;;;;;;;;;4454329;32;20358;-59
2021/11/22 00:42:51;;;;;;;202.40;95.27;;;;;;;;;;4458123;32;20390;-59
2021/11/22 00:45:17;;;;;;;193.80;95.37;;;;;;;;;;4450424;32;20355;-59
2021/11/22 00:47:43;;;;;;;215.33;100.20;;;;;;;;;;4450385;32;20259;-59
2021/11/22 00:50:09;;;;;;;229.83;114.33;;;;;;;;;;4449102;32;20695;-60
2021/11/22 00:52:35;;;;;;;286.30;132.03;;;;;;;;;;4450449;32;20696;-59
2021/11/22 00:55:01;;;;;;;295.03;136.93;;;;;;;;;;4456595;32;20279;-61
2021/11/22 00:57:26;;;;;;;272.53;126.23;;;;;;;;;;4465545;32;20596;-59
2021/11/22 00:59:52;;;;;;;272.50;132.23;;;;;;;;;;4465794;32;20287;-58
2021/11/22 01:02:17;;;;;;;267.10;124.37;;;;;;;;;;4465407;32;20275;-59
2021/11/22 01:04:43;;;;;;;259.57;125.23;;;;;;;;;;4465686;32;20726;-58
2021/11/22 01:07:08;;;;;;;248.00;124.07;;;;;;;;;;4465484;32;20236;-58
2021/11/22 01:09:34;;;;;;;249.57;123.93;;;;;;;;;;4451186;32;20306;-59
2021/11/22 01:12:00;;;;;;;260.97;120.83;;;;;;;;;;4465653;32;20636;-59
2021/11/22 01:14:26;;;;;;;251.43;117.53;;;;;;;;;;4465351;32;20351;-59
2021/11/22 01:16:52;;;;;;;249.73;119.87;;;;;;;;;;4465636;32;20232;-59
2021/11/22 01:19:18;;;;;;;235.93;112.23;;;;;;;;;;4464276;32;20738;-59
2021/11/22 01:21:44;;;;;;;218.13;109.73;;;;;;;;;;4465361;32;20232;-58
2021/11/22 01:24:10;;;;;;;217.13;99.97;;;;;;;;;;4463301;32;20561;-58
2021/11/22 01:26:37;;;;;;;171.03;85.13;;;;;;;;;;4463721;32;20319;-58
2021/11/22 01:29:03;;;;;;;154.37;77.97;;;;;;;;;;4464887;32;20239;-58
2021/11/22 01:31:28;;;;;;;150.80;76.70;;;;;;;;;;4464900;32;20288;-59
2021/11/22 01:33:54;;;;;;;152.27;77.93;;;;;;;;;;4465295;32;20346;-59
2021/11/22 01:36:19;;;;;;;131.53;67.50;;;;;;;;;;4462970;32;20664;-59
2021/11/22 01:38:45;;;;;;;113.43;62.37;;;;;;;;;;4463747;32;20330;-59
2021/11/22 01:41:12;;;;;;;105.73;53.77;;;;;;;;;;4464971;32;20287;-58
2021/11/22 01:43:37;;;;;;;97.03;47.20;;;;;;;;;;4464614;32;20315;-58
2021/11/22 01:46:03;;;;;;;98.50;46.30;;;;;;;;;;4463599;32;20299;-59
2021/11/22 01:48:29;;;;;;;76.00;42.80;;;;;;;;;;4463454;32;20750;-59
2021/11/22 01:50:55;;;;;;;84.50;43.03;;;;;;;;;;4464333;32;20331;-59
2021/11/22 01:53:22;;;;;;;87.40;42.53;;;;;;;;;;4464819;32;20298;-59
2021/11/22 01:55:49;;;;;;;85.53;43.67;;;;;;;;;;4464595;32;20302;-58
2021/11/22 01:58:14;;;;;;;84.87;41.07;;;;;;;;;;4463109;32;20314;-59
2021/11/22 02:00:45;;;;;;;77.40;39.93;;;;;;;;;;4462787;32;20303;-59
2021/11/22 02:03:11;;;;;;;75.37;39.60;;;;;;;;;;4464465;32;20266;-59
2021/11/22 02:05:37;;;;;;;89.27;41.60;;;;;;;;;;4464575;32;20343;-59
2021/11/22 02:08:04;;;;;;;73.03;37.93;;;;;;;;;;4464481;32;20208;-59
2021/11/22 02:10:30;;;;;;;78.97;39.00;;;;;;;;;;4464481;32;20228;-58
2021/11/22 02:12:56;;;;;;;80.03;40.00;;;;;;;;;;4462807;32;20365;-59
2021/11/22 02:15:22;;;;;;;75.13;39.13;;;;;;;;;;4464275;32;20291;-59
2021/11/22 02:17:50;;;;;;;79.33;39.10;;;;;;;;;;4463800;32;20621;-59
2021/11/22 02:20:20;;;;;;;82.50;40.33;;;;;;;;;;4463908;32;20212;-59
2021/11/22 02:22:47;;;;;;;76.70;39.27;;;;;;;;;;4462213;32;20356;-59
2021/11/22 02:25:15;;;;;;;88.00;39.03;;;;;;;;;;4455295;32;20236;-59
2021/11/22 02:27:43;;;;;;;73.90;39.73;;;;;;;;;;4446467;32;20818;-59
2021/11/22 02:30:12;;;;;;;75.93;38.90;;;;;;;;;;4448686;32;20238;-58
2021/11/22 02:32:40;;;;;;;82.80;42.17;;;;;;;;;;4448368;32;20256;-59
2021/11/22 02:35:12;;;;;;;73.67;37.83;;;;;;;;;;4448472;32;20279;-59
2021/11/22 02:37:38;;;;;;;76.37;39.17;;;;;;;;;;4448237;32;20232;-59
2021/11/22 02:40:05;;;;;;;94.37;49.50;;;;;;;;;;4448325;32;20603;-59
2021/11/22 02:42:34;;;;;;;85.33;45.13;;;;;;;;;;4452629;32;20255;-59
2021/11/22 02:45:00;;;;;;;102.57;49.20;;;;;;;;;;4462560;32;20220;-59
2021/11/22 02:47:26;;;;;;;82.97;42.80;;;;;;;;;;4461943;32;20329;-59
2021/11/22 02:49:51;;;;;;;80.97;44.13;;;;;;;;;;4462537;32;20310;-59
2021/11/22 02:52:17;;;;;;;88.67;44.57;;;;;;;;;;4462351;32;20258;-59
2021/11/22 02:54:44;;;;;;;83.33;43.33;;;;;;;;;;4462324;32;20330;-59
2021/11/22 02:57:10;;;;;;;94.73;46.27;;;;;;;;;;4456186;32;20328;-59
2021/11/22 02:59:39;;;;;;;92.07;49.67;;;;;;;;;;4458761;32;20334;-59
2021/11/22 03:02:06;;;;;;;93.13;45.43;;;;;;;;;;4463813;32;20542;-58
2021/11/22 03:04:33;;;;;;;105.90;50.47;;;;;;;;;;4463786;32;20231;-59
2021/11/22 03:06:59;;;;;;;135.50;62.40;;;;;;;;;;4463529;32;20228;-59
2021/11/22 03:09:25;;;;;;;150.60;72.93;;;;;;;;;;4463562;32;20322;-59
2021/11/22 03:11:50;;;;;;;173.90;77.87;;;;;;;;;;4463491;32;20256;-58
2021/11/22 03:14:16;;;;;;;155.60;69.67;;;;;;;;;;4463627;32;20322;-58
2021/11/22 03:16:41;;;;;;;144.40;71.27;;;;;;;;;;4463300;32;20257;-59
2021/11/22 03:19:07;;;;;;;116.83;53.17;;;;;;;;;;4463684;32;20267;-58
2021/11/22 03:21:33;;;;;;;106.83;48.37;;;;;;;;;;4463459;32;20605;-59
2021/11/22 03:23:59;;;;;;;120.43;50.73;;;;;;;;;;4461738;32;20301;-58
2021/11/22 03:26:24;;;;;;;115.47;56.07;;;;;;;;;;4463422;32;20278;-59
2021/11/22 03:28:50;;;;;;;94.43;49.13;;;;;;;;;;4463291;32;20328;-59
2021/11/22 03:31:16;;;;;;;93.13;43.70;;;;;;;;;;4463263;32;20248;-59
2021/11/22 03:33:45;;;;;;;87.33;44.17;;;;;;;;;;4463454;32;20727;-59
2021/11/22 03:36:10;;;;;;;81.87;43.07;;;;;;;;;;4462205;32;20236;-59
2021/11/22 03:38:37;;;;;;;93.50;46.17;;;;;;;;;;4449246;32;20348;-60
2021/11/22 03:41:09;;;;;;;110.93;52.50;;;;;;;;;;4463455;32;20300;-59
2021/11/22 03:43:50;;;;;;;111.07;49.30;;;;;;;;;;4459658;32;20250;-60
2021/11/22 03:46:18;;;;;;;100.30;49.90;;;;;;;;;;4447791;32;20231;-58
2021/11/22 03:48:44;;;;;;;96.70;48.17;;;;;;;;;;4447614;32;20345;-59
2021/11/22 03:51:10;;;;;;;86.30;47.57;;;;;;;;;;4447691;32;20593;-59
2021/11/22 03:53:36;;;;;;;107.43;51.10;;;;;;;;;;4447498;32;20299;-58
2021/11/22 03:56:01;;;;;;;111.13;52.73;;;;;;;;;;4459295;32;20291;-59
2021/11/22 03:58:27;;;;;;;103.70;51.13;;;;;;;;;;4447552;32;20634;-61
2021/11/22 04:00:53;;;;;;;125.07;55.90;;;;;;;;;;4449061;32;20319;-59
2021/11/22 04:03:19;;;;;;;133.70;56.33;;;;;;;;;;4450403;32;20204;-59
2021/11/22 04:05:44;;;;;;;97.87;48.43;;;;;;;;;;4450368;32;20350;-58
2021/11/22 04:08:09;;;;;;;103.60;49.37;;;;;;;;;;4450447;32;20259;-59
2021/11/22 04:10:36;;;;;;;103.37;48.40;;;;;;;;;;4450346;32;20341;-59
2021/11/22 04:13:03;;;;;;;102.27;50.80;;;;;;;;;;4454121;32;20287;-60
2021/11/22 04:15:29;;;;;;;126.90;54.80;;;;;;;;;;4465894;32;20220;-59
2021/11/22 04:17:54;;;;;;;118.07;57.67;;;;;;;;;;4465831;32;20332;-58
2021/11/22 04:20:20;;;;;;;114.70;54.33;;;;;;;;;;4466234;32;20358;-59
2021/11/22 04:22:45;;;;;;;116.17;53.60;;;;;;;;;;4459203;32;20331;-58
2021/11/22 04:25:11;;;;;;;117.40;56.63;;;;;;;;;;4453835;32;20737;-59
2021/11/22 04:27:37;;;;;;;129.47;56.33;;;;;;;;;;4449725;32;20232;-59
2021/11/22 04:30:05;;;;;;;116.17;57.10;;;;;;;;;;4450143;32;20385;-60
2021/11/22 04:32:31;;;;;;;121.60;58.50;;;;;;;;;;4449990;32;20228;-59
2021/11/22 04:34:56;;;;;;;129.80;56.63;;;;;;;;;;4450244;32;20628;-59
2021/11/22 04:37:26;;;;;;;131.57;59.37;;;;;;;;;;4450052;32;20673;-58
2021/11/22 04:39:52;;;;;;;129.70;60.83;;;;;;;;;;4455808;32;20220;-59
2021/11/22 04:42:17;;;;;;;125.97;60.57;;;;;;;;;;4465081;32;20270;-59
2021/11/22 04:44:43;;;;;;;125.43;58.33;;;;;;;;;;4464462;32;20322;-58
2021/11/22 04:47:10;;;;;;;136.37;59.80;;;;;;;;;;4464379;32;20252;-58
2021/11/22 04:49:37;;;;;;;132.50;60.73;;;;;;;;;;4463722;32;20291;-59
2021/11/22 04:52:04;;;;;;;150.27;67.03;;;;;;;;;;4465405;32;20224;-59
2021/11/22 04:54:29;;;;;;;137.03;65.97;;;;;;;;;;4465397;32;20239;-59
2021/11/22 04:56:55;;;;;;;173.70;72.67;;;;;;;;;;4459087;32;20796;-58
2021/11/22 04:59:20;;;;;;;171.97;68.90;;;;;;;;;;4448620;32;20700;-59
2021/11/22 05:01:46;;;;;;;171.10;71.87;;;;;;;;;;4449635;32;20240;-59
2021/11/22 05:04:12;;;;;;;167.70;73.00;;;;;;;;;;4449745;32;20742;-59
2021/11/22 05:06:37;;;;;;;177.20;73.93;;;;;;;;;;4449177;32;20601;-59
2021/11/22 05:09:03;;;;;;;192.03;80.27;;;;;;;;;;4452356;32;20348;-59
2021/11/22 05:11:28;;;;;;;225.80;84.87;;;;;;;;;;4463828;32;20805;-58
2021/11/22 05:13:54;;;;;;;203.03;89.83;;;;;;;;;;4464955;32;20672;-58
2021/11/22 05:16:19;;;;;;;221.87;93.87;;;;;;;;;;4464948;32;20299;-59
2021/11/22 05:18:45;;;;;;;225.53;93.47;;;;;;;;;;4465083;32;20334;-58
2021/11/22 05:21:10;;;;;;;202.40;84.00;;;;;;;;;;4464795;32;20288;-58
2021/11/22 05:23:36;;;;;;;178.63;71.07;;;;;;;;;;4464727;32;20302;-60
2021/11/22 05:26:01;;;;;;;176.87;73.97;;;;;;;;;;4464067;32;20525;-58
2021/11/22 05:28:27;;;;;;;169.80;74.53;;;;;;;;;;4463268;32;20331;-59
2021/11/22 05:30:52;;;;;;;163.37;66.83;;;;;;;;;;4464594;32;20308;-59
2021/11/22 05:33:18;;;;;;;159.73;64.70;;;;;;;;;;4464778;32;20630;-58
2021/11/22 05:35:43;;;;;;;128.93;56.27;;;;;;;;;;4464382;32;20239;-59
2021/11/22 05:38:09;;;;;;;141.57;59.03;;;;;;;;;;4464012;32;20220;-58
2021/11/22 05:40:34;;;;;;;171.10;69.63;;;;;;;;;;4464232;32;20271;-59
2021/11/22 05:43:00;;;;;;;178.37;64.77;;;;;;;;;;4463730;32;20254;-58
2021/11/22 05:45:26;;;;;;;163.10;63.90;;;;;;;;;;4464107;32;20343;-60
2021/11/22 05:47:52;;;;;;;149.07;62.90;;;;;;;;;;4463735;32;20704;-59
2021/11/22 05:50:19;;;;;;;144.43;65.33;;;;;;;;;;4463962;32;20298;-59
2021/11/22 05:52:50;;;;;;;186.47;67.43;;;;;;;;;;4462081;32;20247;-59
2021/11/22 05:55:23;;;;;;;170.13;68.70;;;;;;;;;;4462921;32;20275;-59
2021/11/22 05:57:49;;;;;;;195.33;77.37;;;;;;;;;;4462205;32;20782;-58
2021/11/22 06:00:15;;;;;;;185.37;75.53;;;;;;;;;;4464097;32;20295;-60
2021/11/22 06:02:40;;;;;;;174.80;73.60;;;;;;;;;;4463520;32;20279;-58
2021/11/22 06:05:06;;;;;;;186.27;77.03;;;;;;;;;;4463702;32;20405;-59
2021/11/22 06:07:32;;;;;;;191.03;84.00;;;;;;;;;;4463024;32;20259;-58
2021/11/22 06:09:58;;;;;;;204.23;84.13;;;;;;;;;;4461654;32;20244;-57
2021/11/22 06:12:24;;;;;;;207.27;87.83;;;;;;;;;;4461325;32;20667;-59
2021/11/22 06:14:52;;;;;;;212.33;93.50;;;;;;;;;;4462643;32;20263;-59
2021/11/22 06:17:18;;;;;;;230.13;94.53;;;;;;;;;;4461501;32;20294;-59
2021/11/22 06:19:43;;;;;;;199.03;91.60;;;;;;;;;;4461568;32;20283;-60
2021/11/22 06:22:09;;;;;;;223.20;98.70;;;;;;;;;;4462735;32;20239;-60
2021/11/22 06:24:34;;;;;;;220.57;96.47;;;;;;;;;;4461203;32;20275;-60
2021/11/22 06:27:01;;;;;;;221.13;98.47;;;;;;;;;;4461160;32;20282;-60
2021/11/22 06:29:27;;;;;;;193.13;97.70;;;;;;;;;;4462496;32;20720;-59
2021/11/22 06:31:52;;;;;;;446.80;194.00;;;;;;;;;;4457501;32;20588;-59
2021/11/22 06:34:18;;;;;;;322.47;137.13;;;;;;;;;;4325194;32;20245;-60
2021/11/22 06:36:44;;;;;;;259.47;106.03;;;;;;;;;;4442482;32;20255;-59
2021/11/22 06:39:09;;;;;;;234.87;106.57;;;;;;;;;;4362345;32;21397;-58
2021/11/22 06:41:35;;;;;;;243.67;109.70;;;;;;;;;;4408790;32;20227;-58
2021/11/22 06:44:00;;;;;;;218.57;99.83;;;;;;;;;;4300445;32;20227;-58
2021/11/22 06:46:26;;;;;;;248.07;114.87;;;;;;;;;;4243811;32;21442;-59
2021/11/22 06:48:51;;;;;;;246.50;114.13;;;;;;;;;;4254804;32;20263;-57
2021/11/22 06:51:17;;;;;;;246.13;109.67;;;;;;;;;;4402999;32;20290;-59
2021/11/22 06:53:42;;;;;;;269.50;123.93;;;;;;;;;;4464207;32;20291;-60
2021/11/22 06:56:08;;;;;;;285.53;135.60;;;;;;;;;;4463720;32;20224;-60
2021/11/22 06:58:33;;;;;;;255.13;124.33;;;;;;;;;;4464046;32;20355;-59
2021/11/22 07:00:59;;;;;;;253.60;123.10;;;;;;;;;;4462965;32;20261;-60
2021/11/22 07:03:25;;;;;;;230.13;111.23;;;;;;;;;;4437086;32;20271;-59
2021/11/22 07:05:51;;;;;;;215.93;99.27;;;;;;;;;;4412173;32;20463;-58
2021/11/22 07:08:17;;;;;;;190.80;97.73;;;;;;;;;;4400051;32;20339;-59
2021/11/22 07:10:42;;;;;;;196.27;100.83;;;;;;;;;;4401399;32;20296;-59
2021/11/22 07:13:08;;;;;;;203.00;101.57;;;;;;;;;;4401421;32;20268;-59
2021/11/22 07:15:36;;;;;;;176.97;90.87;;;;;;;;;;4402557;32;20723;-59
2021/11/22 07:18:03;;;;;;;176.67;85.97;;;;;;;;;;4402447;32;20229;-59
2021/11/22 07:20:29;;;;;;;152.23;79.77;;;;;;;;;;4402878;32;20221;-59
2021/11/22 07:22:54;;;;;;;150.83;82.47;;;;;;;;;;4401607;32;20326;-59
2021/11/22 07:25:20;;;;;;;151.93;83.83;;;;;;;;;;4412297;32;20322;-59
2021/11/22 07:27:46;;;;;;;161.73;84.97;;;;;;;;;;4418298;32;20372;-59
2021/11/22 07:30:11;;;;;;;153.60;85.20;;;;;;;;;;4417840;32;20217;-59
2021/11/22 07:32:37;;;;;;;175.87;86.50;;;;;;;;;;4415385;32;20236;-60
2021/11/22 07:35:03;;;;;;;151.13;79.07;;;;;;;;;;4364001;32;20284;-60
2021/11/22 07:37:28;;;;;;;164.90;77.70;;;;;;;;;;4420718;32;20295;-59
2021/11/22 07:39:54;;;;;;;157.97;79.53;;;;;;;;;;4420775;32;20280;-61
2021/11/22 07:42:19;;;;;;;154.23;73.13;;;;;;;;;;4420751;32;20249;-60
2021/11/22 07:44:45;;;;;;;139.70;74.57;;;;;;;;;;4420789;32;20292;-59
2021/11/22 07:47:12;;;;;;;147.67;78.73;;;;;;;;;;4420690;32;20241;-58
2021/11/22 07:49:38;;;;;;;184.23;93.37;;;;;;;;;;4420276;32;20729;-59
2021/11/22 07:52:04;;;;;;;173.80;89.70;;;;;;;;;;4419091;32;20244;-59
2021/11/22 07:54:29;;;;;;;141.90;75.00;;;;;;;;;;4416642;32;20324;-59
2021/11/22 07:56:55;;;;;;;123.60;68.00;;;;;;;;;;4410601;32;20241;-59
2021/11/22 07:59:21;;;;;;;141.67;71.67;;;;;;;;;;4420028;32;20296;-60
2021/11/22 08:01:48;;;;;;;150.07;72.03;;;;;;;;;;4419807;32;20261;-59
2021/11/22 08:04:13;;;;;;;140.20;78.47;;;;;;;;;;4419964;32;20212;-59
2021/11/22 08:06:43;;;;;;;148.77;81.47;;;;;;;;;;4409405;32;20763;-58
2021/11/22 08:09:14;;;;;;;156.13;80.60;;;;;;;;;;4403674;32;20229;-59
2021/11/22 08:12:25;;;;;;;151.73;77.53;;;;;;;;;;4404363;32;20248;-59
2021/11/22 08:14:29;;;;;;;153.97;78.37;;;;;;;;;;4401914;32;20328;-60
2021/11/22 08:16:55;;;;;;;155.97;79.30;;;;;;;;;;4404650;32;20379;-60
2021/11/22 08:19:20;;;;;;;179.93;83.60;;;;;;;;;;4404841;32;20407;-59
2021/11/22 08:21:46;;;;;;;165.87;80.90;;;;;;;;;;4404453;32;20792;-59
2021/11/22 08:24:11;;;;;;;157.43;83.53;;;;;;;;;;4404470;32;20300;-61
2021/11/22 08:26:37;;;;;;;154.67;83.70;;;;;;;;;;4402945;32;20245;-60
2021/11/22 08:29:03;;;;;;;174.77;80.70;;;;;;;;;;4405232;32;20367;-60
2021/11/22 08:31:28;;;;;;;161.43;82.17;;;;;;;;;;4404629;32;20234;-59
2021/11/22 08:33:54;;;;;;;152.57;83.40;;;;;;;;;;4405241;32;20336;-59
2021/11/22 08:36:21;;;;;;;148.23;78.07;;;;;;;;;;4406856;32;20348;-59
2021/11/22 08:38:47;;;;;;;160.47;79.40;;;;;;;;;;4411939;32;20209;-59
2021/11/22 08:41:14;;;;;;;149.07;76.53;;;;;;;;;;4419744;32;20257;-60
2021/11/22 08:43:39;;;;;;;153.00;76.13;;;;;;;;;;4418501;32;20255;-60
2021/11/22 08:46:05;;;;;;;168.77;78.80;;;;;;;;;;4419786;32;20621;-59
2021/11/22 08:48:30;;;;;;;140.03;78.07;;;;;;;;;;4419586;32;20300;-59
2021/11/22 08:50:56;;;;;;;146.03;78.80;;;;;;;;;;4414881;32;20353;-59
2021/11/22 08:53:22;;;;;;;145.20;75.03;;;;;;;;;;4402977;32;20308;-59
2021/11/22 08:55:47;;;;;;;139.80;72.97;;;;;;;;;;4402451;32;20300;-59
2021/11/22 08:58:13;;;;;;;135.87;74.33;;;;;;;;;;4417782;32;20220;-59
2021/11/22 09:00:41;;;;;;;139.27;70.43;;;;;;;;;;4419412;32;20264;-58
2021/11/22 09:03:07;;;;;;;137.30;69.73;;;;;;;;;;4419190;32;20360;-59
2021/11/22 09:05:33;;;;;;;123.33;68.07;;;;;;;;;;4419377;32;20318;-59
2021/11/22 09:07:59;;;;;;;109.47;56.33;;;;;;;;;;4418984;32;20572;-60
2021/11/22 09:10:25;;;;;;;97.10;55.93;;;;;;;;;;4418960;32;20598;-59
2021/11/22 09:12:51;;;;;;;114.80;55.57;;;;;;;;;;4419230;32;20256;-59
2021/11/22 09:15:17;;;;;;;112.23;57.80;;;;;;;;;;4419227;32;20292;-58
2021/11/22 09:17:42;;;;;;;109.87;58.40;;;;;;;;;;4418925;32;20263;-59
2021/11/22 09:20:09;;;;;;;99.90;57.97;;;;;;;;;;4419242;32;20346;-60
2021/11/22 09:22:36;;;;;;;106.77;57.97;;;;;;;;;;4417461;32;20709;-59
2021/11/22 09:25:03;;;;;;;152.23;70.90;;;;;;;;;;4418553;32;20246;-60
2021/11/22 09:27:29;;;;;;;139.93;73.07;;;;;;;;;;4419087;32;20245;-59
2021/11/22 09:29:54;;;;;;;175.67;83.37;;;;;;;;;;4419049;32;20284;-59
2021/11/22 09:32:20;;;;;;;150.27;76.97;;;;;;;;;;4418921;32;20601;-59
2021/11/22 09:34:46;;;;;;;113.90;60.77;;;;;;;;;;4419314;32;20353;-59
2021/11/22 09:37:11;;;;;;;112.27;58.50;;;;;;;;;;4418760;32;20249;-61
2021/11/22 09:39:37;;;;;;;100.00;55.97;;;;;;;;;;4418550;32;20276;-59
2021/11/22 09:42:03;;;;;;;145.70;78.23;;;;;;;;;;4419095;32;20225;-59
2021/11/22 09:44:28;;;;;;;106.97;60.93;;;;;;;;;;4417796;32;20252;-59
2021/11/22 09:46:54;;;;;;;107.00;57.17;;;;;;;;;;4415696;32;20373;-61
2021/11/22 09:49:21;;;;;;;106.63;59.07;;;;;;;;;;4402750;32;20221;-59
2021/11/22 09:51:46;;;;;;;117.07;63.90;;;;;;;;;;4402487;32;20346;-59
2021/11/22 09:54:12;;;;;;;111.00;62.50;;;;;;;;;;4403217;32;20280;-59
2021/11/22 09:56:38;;;;;;;115.03;65.73;;;;;;;;;;4406088;32;20221;-59
2021/11/22 09:59:04;;;;;;;115.03;64.03;;;;;;;;;;4418543;32;20288;-59
2021/11/22 10:01:32;;;;;;;111.67;62.63;;;;;;;;;;4416730;32;20284;-59
2021/11/22 10:03:58;;;;;;;109.40;61.67;;;;;;;;;;4418389;32;20290;-59
2021/11/22 10:06:24;;;;;;;120.43;65.27;;;;;;;;;;4417964;32;20275;-59
2021/11/22 10:08:49;;;;;;;114.93;62.27;;;;;;;;;;4417837;32;20665;-60
2021/11/22 10:11:17;;;;;;;115.60;62.87;;;;;;;;;;4418104;32;20245;-59
2021/11/22 10:13:45;;;;;;;111.33;60.70;;;;;;;;;;4418003;32;20549;-59
2021/11/22 10:16:17;;;;;;;116.80;64.30;;;;;;;;;;4417164;32;20225;-59
2021/11/22 10:19:00;;;;;;;126.80;67.93;;;;;;;;;;4417853;32;20339;-60
2021/11/22 10:21:28;;;;;;;109.03;63.70;;;;;;;;;;4417924;32;20300;-59
2021/11/22 10:24:03;;;;;;;106.40;62.57;;;;;;;;;;4417971;32;20209;-59
2021/11/22 10:26:48;;;;;;;112.83;61.57;;;;;;;;;;4417435;32;20278;-60
2021/11/22 10:29:32;;;;;;;119.33;62.13;;;;;;;;;;4417978;32;20574;-59
2021/11/22 10:32:00;;;;;;;108.90;57.60;;;;;;;;;;4414628;32;20713;-59
2021/11/22 10:34:26;;;;;;;96.73;59.20;;;;;;;;;;4401412;32;20462;-59
2021/11/22 10:37:03;;;;;;;105.80;57.47;;;;;;;;;;4402192;32;20226;-59
2021/11/22 10:39:29;;;;;;;95.03;52.67;;;;;;;;;;4402483;32;20573;-60
2021/11/22 10:41:56;;;;;;;94.23;51.00;;;;;;;;;;4402779;32;20226;-60
2021/11/22 10:44:21;;;;;;;118.07;61.10;;;;;;;;;;4417646;32;20249;-59
2021/11/22 10:46:52;;;;;;;105.37;65.33;;;;;;;;;;4417079;32;20241;-59
2021/11/22 10:49:32;;;;;;;101.53;57.50;;;;;;;;;;4417619;32;20557;-59
2021/11/22 10:52:13;;;;;;;104.67;59.13;;;;;;;;;;4417581;32;20554;-58
2021/11/22 10:55:01;;;;;;;97.37;55.17;;;;;;;;;;4417177;32;20205;-59
2021/11/22 10:57:45;;;;;;;102.03;58.67;;;;;;;;;;4417192;32;20333;-59
2021/11/22 11:00:17;;;;;;;99.97;56.67;;;;;;;;;;4417794;32;20228;-60
2021/11/22 11:02:43;;;;;;;108.23;54.73;;;;;;;;;;4410360;32;20276;-59
2021/11/22 11:05:09;;;;;;;96.30;56.67;;;;;;;;;;4402651;32;20314;-59
2021/11/22 11:07:35;;;;;;;98.90;55.90;;;;;;;;;;4402108;32;20850;-59
2021/11/22 11:10:01;;;;;;;96.67;54.23;;;;;;;;;;4404660;32;20310;-59
2021/11/22 11:12:26;;;;;;;115.03;52.20;;;;;;;;;;4402447;32;20368;-58
2021/11/22 11:14:54;;;;;;;101.23;51.20;;;;;;;;;;4405417;32;20682;-60
2021/11/22 11:17:31;;;;;;;92.93;52.00;;;;;;;;;;4404508;32;20697;-59
2021/11/22 11:20:00;;;;;;;88.70;48.37;;;;;;;;;;4405780;32;20296;-60
2021/11/22 11:22:28;;;;;;;87.90;53.13;;;;;;;;;;4403366;32;20382;-58
2021/11/22 11:24:56;;;;;;;80.70;45.87;;;;;;;;;;4410860;32;20256;-58
2021/11/22 11:27:22;;;;;;;61.60;41.53;;;;;;;;;;4420013;32;20225;-60
2021/11/22 11:29:48;;;;;;;72.87;41.27;;;;;;;;;;4420623;32;20763;-59
2021/11/22 11:32:13;;;;;;;75.57;38.63;;;;;;;;;;4420306;32;20307;-59
2021/11/22 11:34:50;;;;;;;57.87;34.93;;;;;;;;;;4420090;32;20734;-60
2021/11/22 11:37:41;;;;;;;72.13;35.70;;;;;;;;;;4419752;32;20712;-59
2021/11/22 11:40:31;;;;;;;73.93;38.10;;;;;;;;;;4412974;32;20312;-59
2021/11/22 11:43:24;;;;;;;78.07;40.03;;;;;;;;;;4407920;32;20318;-59
2021/11/22 11:45:54;;;;;;;63.60;38.10;;;;;;;;;;4416388;32;20688;-60
2021/11/22 11:48:30;;;;;;;68.80;43.97;;;;;;;;;;4419731;32;20205;-59
2021/11/22 11:51:17;;;;;;;85.07;45.40;;;;;;;;;;4419804;32;20769;-59
2021/11/22 11:54:24;;;;;;;75.50;39.47;;;;;;;;;;4418534;32;20585;-59
2021/11/22 11:56:56;;;;;;;69.90;39.13;;;;;;;;;;4395818;32;20264;-58
2021/11/22 11:59:38;;;;;;;71.50;40.70;;;;;;;;;;4420347;32;20253;-59
2021/11/22 12:02:12;;;;;;;69.47;42.10;;;;;;;;;;4419192;32;20300;-60
2021/11/22 12:04:50;;;;;;;76.23;46.23;;;;;;;;;;4417684;32;20237;-60
2021/11/22 12:07:27;;;;;;;71.43;43.83;;;;;;;;;;4418892;32;20271;-59
2021/11/22 12:10:06;;;;;;;70.43;42.17;;;;;;;;;;4418929;32;20269;-60
2021/11/22 12:12:42;;;;;;;70.67;39.77;;;;;;;;;;4418857;32;20262;-59
2021/11/22 12:15:18;;;;;;;69.67;42.87;;;;;;;;;;4419202;32;20282;-59
2021/11/22 12:17:44;;;;;;;74.03;43.00;;;;;;;;;;4417912;32;20285;-59
2021/11/22 12:20:18;;;;;;;68.47;40.93;;;;;;;;;;4417367;32;20544;-59
2021/11/22 12:23:07;;;;;;;62.40;39.17;;;;;;;;;;4418570;32;20224;-60
2021/11/22 12:25:49;;;;;;;67.17;39.97;;;;;;;;;;4408098;32;20210;-59
2021/11/22 12:28:22;;;;;;;72.33;39.27;;;;;;;;;;4402455;32;20649;-60
2021/11/22 12:30:55;;;;;;;75.00;41.97;;;;;;;;;;4402390;32;20669;-59
2021/11/22 12:33:21;;;;;;;86.90;45.63;;;;;;;;;;4403649;32;20213;-60
2021/11/22 12:35:55;;;;;;;80.03;46.03;;;;;;;;;;4403436;32;20296;-59
2021/11/22 12:38:27;;;;;;;84.43;42.33;;;;;;;;;;4403847;32;20201;-59
2021/11/22 12:40:56;;;;;;;70.37;43.60;;;;;;;;;;4406028;32;20232;-59
2021/11/22 12:43:48;;;;;;;80.40;46.40;;;;;;;;;;4411808;32;20709;-59
2021/11/22 12:46:23;;;;;;;75.53;45.40;;;;;;;;;;4417634;32;20339;-60
2021/11/22 12:48:52;;;;;;;83.80;44.70;;;;;;;;;;4419482;32;20373;-59
2021/11/22 12:51:21;;;;;;;73.37;44.03;;;;;;;;;;4418459;32;20254;-60
2021/11/22 12:54:02;;;;;;;73.13;43.20;;;;;;;;;;4418187;32;20339;-59
2021/11/22 12:56:39;;;;;;;82.70;49.43;;;;;;;;;;4418248;32;20673;-60
2021/11/22 12:59:15;;;;;;;80.97;51.27;;;;;;;;;;4418753;32;20245;-59
2021/11/22 13:01:59;;;;;;;83.97;50.13;;;;;;;;;;4403744;32;20702;-59
2021/11/22 13:04:44;;;;;;;89.20;50.47;;;;;;;;;;4403893;32;20205;-59
2021/11/22 13:07:36;;;;;;;86.73;47.83;;;;;;;;;;4403713;32;20237;-60
2021/11/22 13:10:04;;;;;;;89.13;48.20;;;;;;;;;;4401605;32;20265;-59
2021/11/22 13:12:37;;;;;;;80.60;44.83;;;;;;;;;;4404067;32;20436;-59
2021/11/22 13:15:12;;;;;;;64.27;38.53;;;;;;;;;;4404168;32;20193;-60
2021/11/22 13:17:38;;;;;;;72.63;39.07;;;;;;;;;;4409828;32;20263;-59
2021/11/22 13:20:04;;;;;;;65.47;40.70;;;;;;;;;;4419638;32;20276;-60
2021/11/22 13:22:30;;;;;;;67.77;41.57;;;;;;;;;;4417519;32;20414;-59
2021/11/22 13:24:55;;;;;;;68.83;39.50;;;;;;;;;;4417120;32;20623;-59
2021/11/22 13:27:20;;;;;;;70.40;37.30;;;;;;;;;;4418931;32;20325;-58
2021/11/22 13:29:46;;;;;;;58.33;34.70;;;;;;;;;;4430156;32;20704;-59
2021/11/22 13:32:12;;;;;;;61.43;36.83;;;;;;;;;;4413296;32;20225;-59
2021/11/22 13:34:37;;;;;;;69.87;42.70;;;;;;;;;;4403435;32;20268;-59
2021/11/22 13:37:06;;;;;;;81.07;46.53;;;;;;;;;;4403095;32;20229;-58
2021/11/22 13:39:43;;;;;;;86.70;48.93;;;;;;;;;;4401469;32;20261;-60
2021/11/22 13:42:19;;;;;;;68.20;40.73;;;;;;;;;;4405205;32;20221;-59
2021/11/22 13:44:48;;;;;;;70.90;39.33;;;;;;;;;;4417770;32;20205;-59
2021/11/22 13:47:19;;;;;;;69.40;37.57;;;;;;;;;;4418481;32;20846;-60
2021/11/22 13:49:45;;;;;;;66.97;36.53;;;;;;;;;;4416740;32;20221;-60
2021/11/22 13:52:11;;;;;;;67.17;35.40;;;;;;;;;;4418116;32;20394;-60
2021/11/22 13:54:36;;;;;;;65.17;42.23;;;;;;;;;;4418013;32;20289;-60
2021/11/22 13:57:04;;;;;;;68.63;38.80;;;;;;;;;;4418291;32;20630;-59
2021/11/22 13:59:33;;;;;;;63.47;33.73;;;;;;;;;;4418300;32;20561;-59
2021/11/22 14:02:07;;;;;;;64.37;36.43;;;;;;;;;;4418104;32;20236;-59
2021/11/22 14:04:37;;;;;;;61.30;34.83;;;;;;;;;;4418573;32;20555;-60
2021/11/22 14:07:09;;;;;;;60.47;31.50;;;;;;;;;;4418399;32;20217;-60
2021/11/22 14:09:35;;;;;;;51.17;32.03;;;;;;;;;;4417944;32;20217;-59
2021/11/22 14:12:04;;;;;;;58.77;33.93;;;;;;;;;;4417752;32;20533;-60
2021/11/22 14:14:30;;;;;;;58.47;32.87;;;;;;;;;;4418168;32;20323;-59